sensor_id;sensor_type;location;lat;lon;timestamp;P1;durP1;ratioP1;P2;durP2;ratioP2
67762;SDS011;54566;52.022;5.582;2023-12-07T00:00:33;27.30;;;13.75;;
67762;SDS011;54566;52.022;5.582;2023-12-07T00:02:59;25.35;;;13.55;;
67762;SDS011;54566;52.022;5.582;2023-12-07T00:05:28;30.90;;;14.50;;
67762;SDS011;54566;52.022;5.582;2023-12-07T00:10:22;29.23;;;15.48;;
67762;SDS011;54566;52.022;5.582;2023-12-07T00:12:48;28.33;;;14.05;;
67762;SDS011;54566;52.022;5.582;2023-12-07T00:15:23;27.33;;;14.15;;
67762;SDS011;54566;52.022;5.582;2023-12-07T00:17:52;26.00;;;13.45;;
67762;SDS011;54566;52.022;5.582;2023-12-07T00:20:24;25.02;;;15.15;;
67762;SDS011;54566;52.022;5.582;2023-12-07T00:25:16;27.52;;;16.05;;
67762;SDS011;54566;52.022;5.582;2023-12-07T00:27:42;31.58;;;17.13;;
67762;SDS011;54566;52.022;5.582;2023-12-07T00:30:13;27.67;;;14.75;;
67762;SDS011;54566;52.022;5.582;2023-12-07T00:32:39;37.63;;;16.52;;
67762;SDS011;54566;52.022;5.582;2023-12-07T00:35:08;35.08;;;16.80;;
67762;SDS011;54566;52.022;5.582;2023-12-07T00:37:35;34.35;;;15.85;;
67762;SDS011;54566;52.022;5.582;2023-12-07T00:40:01;32.45;;;15.77;;
67762;SDS011;54566;52.022;5.582;2023-12-07T00:42:27;30.63;;;15.77;;
67762;SDS011;54566;52.022;5.582;2023-12-07T00:45:01;30.67;;;15.65;;
67762;SDS011;54566;52.022;5.582;2023-12-07T00:47:27;34.53;;;15.13;;
67762;SDS011;54566;52.022;5.582;2023-12-07T00:49:53;33.90;;;16.63;;
67762;SDS011;54566;52.022;5.582;2023-12-07T00:52:21;29.58;;;16.95;;
67762;SDS011;54566;52.022;5.582;2023-12-07T00:54:50;39.75;;;18.70;;
67762;SDS011;54566;52.022;5.582;2023-12-07T00:57:16;33.97;;;17.95;;
67762;SDS011;54566;52.022;5.582;2023-12-07T00:59:42;33.65;;;17.52;;
67762;SDS011;54566;52.022;5.582;2023-12-07T01:02:11;28.35;;;16.17;;
67762;SDS011;54566;52.022;5.582;2023-12-07T01:04:37;34.88;;;16.10;;
67762;SDS011;54566;52.022;5.582;2023-12-07T01:07:03;33.47;;;17.33;;
67762;SDS011;54566;52.022;5.582;2023-12-07T01:09:29;35.15;;;16.52;;
67762;SDS011;54566;52.022;5.582;2023-12-07T01:12:03;32.63;;;17.27;;
67762;SDS011;54566;52.022;5.582;2023-12-07T01:14:29;38.13;;;17.35;;
67762;SDS011;54566;52.022;5.582;2023-12-07T01:16:58;31.23;;;16.85;;
67762;SDS011;54566;52.022;5.582;2023-12-07T01:21:50;31.95;;;15.98;;
67762;SDS011;54566;52.022;5.582;2023-12-07T01:24:16;33.10;;;16.33;;
67762;SDS011;54566;52.022;5.582;2023-12-07T01:26:42;35.55;;;16.80;;
67762;SDS011;54566;52.022;5.582;2023-12-07T01:29:09;29.35;;;14.95;;
67762;SDS011;54566;52.022;5.582;2023-12-07T01:31:34;34.78;;;16.20;;
67762;SDS011;54566;52.022;5.582;2023-12-07T01:34:01;30.50;;;15.98;;
67762;SDS011;54566;52.022;5.582;2023-12-07T01:36:30;31.80;;;14.90;;
67762;SDS011;54566;52.022;5.582;2023-12-07T01:39:03;39.28;;;16.77;;
67762;SDS011;54566;52.022;5.582;2023-12-07T01:41:29;32.55;;;14.68;;
67762;SDS011;54566;52.022;5.582;2023-12-07T01:43:59;25.88;;;14.57;;
67762;SDS011;54566;52.022;5.582;2023-12-07T01:46:25;31.30;;;14.63;;
67762;SDS011;54566;52.022;5.582;2023-12-07T01:49:03;32.33;;;13.93;;
67762;SDS011;54566;52.022;5.582;2023-12-07T01:51:32;35.63;;;15.70;;
67762;SDS011;54566;52.022;5.582;2023-12-07T01:54:05;31.02;;;15.23;;
67762;SDS011;54566;52.022;5.582;2023-12-07T01:56:42;33.97;;;16.23;;
67762;SDS011;54566;52.022;5.582;2023-12-07T01:59:08;32.55;;;15.38;;
67762;SDS011;54566;52.022;5.582;2023-12-07T02:01:40;32.85;;;14.23;;
67762;SDS011;54566;52.022;5.582;2023-12-07T02:06:49;22.90;;;12.88;;
67762;SDS011;54566;52.022;5.582;2023-12-07T02:09:15;33.60;;;13.45;;
67762;SDS011;54566;52.022;5.582;2023-12-07T02:11:46;26.50;;;13.38;;
67762;SDS011;54566;52.022;5.582;2023-12-07T02:14:20;22.63;;;12.73;;
67762;SDS011;54566;52.022;5.582;2023-12-07T02:22:01;27.30;;;13.55;;
67762;SDS011;54566;52.022;5.582;2023-12-07T02:24:27;27.48;;;13.38;;
67762;SDS011;54566;52.022;5.582;2023-12-07T02:27:05;37.08;;;12.95;;
67762;SDS011;54566;52.022;5.582;2023-12-07T02:29:40;24.70;;;13.15;;
67762;SDS011;54566;52.022;5.582;2023-12-07T02:32:06;26.52;;;13.20;;
67762;SDS011;54566;52.022;5.582;2023-12-07T02:34:48;29.17;;;13.50;;
67762;SDS011;54566;52.022;5.582;2023-12-07T02:37:14;27.85;;;13.43;;
67762;SDS011;54566;52.022;5.582;2023-12-07T02:39:41;26.88;;;12.88;;
67762;SDS011;54566;52.022;5.582;2023-12-07T02:42:10;24.05;;;13.02;;
67762;SDS011;54566;52.022;5.582;2023-12-07T02:44:41;27.02;;;13.60;;
67762;SDS011;54566;52.022;5.582;2023-12-07T02:47:12;26.73;;;12.68;;
67762;SDS011;54566;52.022;5.582;2023-12-07T02:49:41;28.50;;;13.35;;
67762;SDS011;54566;52.022;5.582;2023-12-07T02:52:07;25.20;;;12.07;;
67762;SDS011;54566;52.022;5.582;2023-12-07T02:54:33;24.50;;;12.25;;
67762;SDS011;54566;52.022;5.582;2023-12-07T02:57:09;23.95;;;12.30;;
67762;SDS011;54566;52.022;5.582;2023-12-07T02:59:45;32.63;;;12.20;;
67762;SDS011;54566;52.022;5.582;2023-12-07T03:04:37;32.58;;;13.95;;
67762;SDS011;54566;52.022;5.582;2023-12-07T03:07:05;29.23;;;13.60;;
67762;SDS011;54566;52.022;5.582;2023-12-07T03:09:34;27.90;;;13.60;;
67762;SDS011;54566;52.022;5.582;2023-12-07T03:12:00;28.02;;;12.95;;
67762;SDS011;54566;52.022;5.582;2023-12-07T03:14:38;27.02;;;12.63;;
67762;SDS011;54566;52.022;5.582;2023-12-07T03:17:15;24.85;;;12.98;;
67762;SDS011;54566;52.022;5.582;2023-12-07T03:19:41;22.30;;;11.73;;
67762;SDS011;54566;52.022;5.582;2023-12-07T03:22:13;35.60;;;12.40;;
67762;SDS011;54566;52.022;5.582;2023-12-07T03:24:40;28.70;;;11.63;;
67762;SDS011;54566;52.022;5.582;2023-12-07T03:30:10;23.20;;;12.05;;
67762;SDS011;54566;52.022;5.582;2023-12-07T03:32:39;16.77;;;10.60;;
67762;SDS011;54566;52.022;5.582;2023-12-07T03:35:10;25.25;;;12.45;;
67762;SDS011;54566;52.022;5.582;2023-12-07T03:37:39;31.48;;;12.50;;
67762;SDS011;54566;52.022;5.582;2023-12-07T03:40:08;22.33;;;12.18;;
67762;SDS011;54566;52.022;5.582;2023-12-07T03:42:36;26.13;;;12.95;;
67762;SDS011;54566;52.022;5.582;2023-12-07T03:45:08;25.15;;;13.32;;
67762;SDS011;54566;52.022;5.582;2023-12-07T03:47:35;27.08;;;12.98;;
67762;SDS011;54566;52.022;5.582;2023-12-07T03:50:04;24.20;;;11.30;;
67762;SDS011;54566;52.022;5.582;2023-12-07T04:04:48;27.70;;;13.35;;
67762;SDS011;54566;52.022;5.582;2023-12-07T04:07:28;21.90;;;12.48;;
67762;SDS011;54566;52.022;5.582;2023-12-07T04:09:57;22.63;;;12.93;;
67762;SDS011;54566;52.022;5.582;2023-12-07T04:15:48;32.63;;;13.65;;
67762;SDS011;54566;52.022;5.582;2023-12-07T04:21:22;27.20;;;12.77;;
67762;SDS011;54566;52.022;5.582;2023-12-07T04:26:54;22.40;;;12.38;;
67762;SDS011;54566;52.022;5.582;2023-12-07T04:29:31;24.42;;;13.27;;
67762;SDS011;54566;52.022;5.582;2023-12-07T04:32:19;25.65;;;12.80;;
67762;SDS011;54566;52.022;5.582;2023-12-07T04:35:14;24.27;;;13.00;;
67762;SDS011;54566;52.022;5.582;2023-12-07T04:37:48;29.40;;;13.50;;
67762;SDS011;54566;52.022;5.582;2023-12-07T04:46:50;26.20;;;12.73;;
67762;SDS011;54566;52.022;5.582;2023-12-07T04:49:23;37.70;;;14.15;;
67762;SDS011;54566;52.022;5.582;2023-12-07T04:52:04;104.53;;;15.65;;
67762;SDS011;54566;52.022;5.582;2023-12-07T04:54:36;78.45;;;15.52;;
67762;SDS011;54566;52.022;5.582;2023-12-07T04:57:07;91.93;;;16.83;;
67762;SDS011;54566;52.022;5.582;2023-12-07T05:02:39;93.18;;;17.95;;
67762;SDS011;54566;52.022;5.582;2023-12-07T05:05:21;187.90;;;20.48;;
67762;SDS011;54566;52.022;5.582;2023-12-07T05:07:49;177.05;;;23.25;;
67762;SDS011;54566;52.022;5.582;2023-12-07T05:10:21;130.50;;;18.95;;
67762;SDS011;54566;52.022;5.582;2023-12-07T05:13:05;189.75;;;19.35;;
67762;SDS011;54566;52.022;5.582;2023-12-07T05:18:26;165.20;;;19.27;;
67762;SDS011;54566;52.022;5.582;2023-12-07T05:21:15;199.45;;;22.75;;
67762;SDS011;54566;52.022;5.582;2023-12-07T05:23:43;111.50;;;18.35;;
67762;SDS011;54566;52.022;5.582;2023-12-07T05:26:16;169.43;;;19.65;;
67762;SDS011;54566;52.022;5.582;2023-12-07T05:31:51;164.55;;;21.38;;
67762;SDS011;54566;52.022;5.582;2023-12-07T05:40:37;238.52;;;22.08;;
67762;SDS011;54566;52.022;5.582;2023-12-07T05:45:58;253.07;;;22.50;;
67762;SDS011;54566;52.022;5.582;2023-12-07T05:48:42;189.20;;;18.23;;
67762;SDS011;54566;52.022;5.582;2023-12-07T05:51:13;233.70;;;21.05;;
67762;SDS011;54566;52.022;5.582;2023-12-07T05:53:40;164.23;;;19.10;;
67762;SDS011;54566;52.022;5.582;2023-12-07T05:56:24;179.25;;;19.52;;
67762;SDS011;54566;52.022;5.582;2023-12-07T05:58:57;184.63;;;19.92;;
67762;SDS011;54566;52.022;5.582;2023-12-07T06:01:23;213.77;;;23.80;;
67762;SDS011;54566;52.022;5.582;2023-12-07T06:03:55;208.00;;;20.85;;
67762;SDS011;54566;52.022;5.582;2023-12-07T06:06:22;162.80;;;17.25;;
67762;SDS011;54566;52.022;5.582;2023-12-07T06:09:00;258.45;;;22.58;;
67762;SDS011;54566;52.022;5.582;2023-12-07T07:43:57;109.85;;;15.65;;
67762;SDS011;54566;52.022;5.582;2023-12-07T07:46:30;133.65;;;15.35;;
67762;SDS011;54566;52.022;5.582;2023-12-07T07:48:57;268.48;;;14.65;;
67762;SDS011;54566;52.022;5.582;2023-12-07T07:51:32;160.32;;;13.00;;
67762;SDS011;54566;52.022;5.582;2023-12-07T07:53:59;164.15;;;14.88;;
67762;SDS011;54566;52.022;5.582;2023-12-07T07:56:25;165.07;;;14.80;;
67762;SDS011;54566;52.022;5.582;2023-12-07T07:59:03;105.88;;;15.38;;
67762;SDS011;54566;52.022;5.582;2023-12-07T08:01:29;95.78;;;13.20;;
67762;SDS011;54566;52.022;5.582;2023-12-07T08:03:56;246.73;;;16.52;;
67762;SDS011;54566;52.022;5.582;2023-12-07T08:06:22;138.35;;;16.08;;
67762;SDS011;54566;52.022;5.582;2023-12-07T08:08:48;184.23;;;15.95;;
67762;SDS011;54566;52.022;5.582;2023-12-07T08:11:22;159.30;;;14.75;;
67762;SDS011;54566;52.022;5.582;2023-12-07T08:13:48;165.43;;;14.38;;
67762;SDS011;54566;52.022;5.582;2023-12-07T08:16:16;247.50;;;18.23;;
67762;SDS011;54566;52.022;5.582;2023-12-07T08:18:42;209.95;;;15.88;;
67762;SDS011;54566;52.022;5.582;2023-12-07T08:21:25;127.90;;;14.60;;
67762;SDS011;54566;52.022;5.582;2023-12-07T08:24:00;184.05;;;16.13;;
67762;SDS011;54566;52.022;5.582;2023-12-07T08:26:30;129.30;;;15.85;;
67762;SDS011;54566;52.022;5.582;2023-12-07T08:38:40;101.78;;;15.90;;
67762;SDS011;54566;52.022;5.582;2023-12-07T08:48:25;172.05;;;16.58;;
67762;SDS011;54566;52.022;5.582;2023-12-07T08:51:35;151.80;;;15.80;;
67762;SDS011;54566;52.022;5.582;2023-12-07T09:00:35;135.98;;;15.98;;
67762;SDS011;54566;52.022;5.582;2023-12-07T09:24:53;75.40;;;13.07;;
67762;SDS011;54566;52.022;5.582;2023-12-07T09:36:33;106.80;;;9.77;;
67762;SDS011;54566;52.022;5.582;2023-12-07T09:51:38;86.43;;;10.57;;
